createdAt,value
2023-04-24T00:02:17.111Z,96521.63
2023-04-24T00:04:45.902Z,96524.34
2023-04-24T00:07:13.980Z,96518.63
2023-04-24T00:09:40.572Z,96515.34
2023-04-24T00:12:07.328Z,96510.13
2023-04-24T00:14:33.876Z,96502.38
2023-04-24T00:17:00.511Z,96500.13
2023-04-24T00:19:27.048Z,96502.16
2023-04-24T00:21:53.504Z,96502.47
2023-04-24T00:24:19.932Z,96490.97
2023-04-24T00:26:46.454Z,96506.28
2023-04-24T00:29:12.973Z,96502.97
2023-04-24T00:31:39.764Z,96502.00
2023-04-24T00:34:06.657Z,96504.06
2023-04-24T00:36:33.506Z,96504.44
2023-04-24T00:39:00.168Z,96500.78
2023-04-24T00:41:26.768Z,96498.84
2023-04-24T00:43:53.844Z,96499.13
2023-04-24T00:46:20.679Z,96496.03
2023-04-24T00:48:47.339Z,96501.16
2023-04-24T00:51:13.862Z,96496.72
2023-04-24T00:53:40.556Z,96492.66
2023-04-24T00:56:07.017Z,96486.16
2023-04-24T00:58:33.481Z,96478.47
2023-04-24T01:01:01.978Z,96479.47
2023-04-24T01:03:32.735Z,96488.00
2023-04-24T01:05:59.612Z,96485.13
2023-04-24T01:08:27.381Z,96486.88
2023-04-24T01:10:54.216Z,96485.56
2023-04-24T01:13:21.780Z,96492.00
2023-04-24T01:15:48.445Z,96495.03
2023-04-24T01:18:15.315Z,96495.91
2023-04-24T01:20:43.558Z,96486.50
2023-04-24T01:23:10.584Z,96484.13
2023-04-24T01:25:37.530Z,96491.94
2023-04-24T01:28:04.657Z,96477.53
2023-04-24T01:30:32.098Z,96475.25
2023-04-24T01:32:59.686Z,96473.16
2023-04-24T01:35:26.500Z,96484.91
2023-04-24T01:37:53.049Z,96470.44
2023-04-24T01:40:19.622Z,96474.13
2023-04-24T01:42:46.182Z,96469.47
2023-04-24T01:45:13.941Z,96470.06
2023-04-24T01:47:40.583Z,96475.19
2023-04-24T01:50:07.653Z,96467.06
2023-04-24T01:52:34.258Z,96469.47
2023-04-24T01:55:01.229Z,96465.88
2023-04-24T01:57:27.818Z,96463.94
2023-04-24T01:59:54.260Z,96459.25
2023-04-24T02:02:22.348Z,96469.09
2023-04-24T02:04:48.999Z,96463.84
2023-04-24T02:07:15.505Z,96460.47
2023-04-24T02:09:42.188Z,96457.13
2023-04-24T02:12:08.905Z,96453.91
2023-04-24T02:14:35.633Z,96456.88
2023-04-24T02:17:03.696Z,96441.34
2023-04-24T02:19:30.164Z,96452.00
2023-04-24T02:21:56.675Z,96445.81
2023-04-24T02:24:23.130Z,96438.22
2023-04-24T02:26:49.593Z,96437.63
2023-04-24T02:29:16.294Z,96433.16
2023-04-24T02:31:42.794Z,96434.75
2023-04-24T02:34:09.298Z,96439.03
2023-04-24T02:36:35.808Z,96432.38
2023-04-24T02:39:02.307Z,96423.34
2023-04-24T02:41:33.689Z,96425.31
2023-04-24T02:44:00.257Z,96431.03
2023-04-24T02:46:27.399Z,96427.00
2023-04-24T02:48:53.987Z,96419.34
2023-04-24T02:51:20.449Z,96427.38
2023-04-24T02:53:47.018Z,96424.06
2023-04-24T02:56:13.976Z,96428.97
2023-04-24T02:58:40.545Z,96418.63
2023-04-24T03:01:07.082Z,96420.06
2023-04-24T03:03:33.719Z,96412.75
2023-04-24T03:06:00.798Z,96417.53
2023-04-24T03:08:27.292Z,96423.16
2023-04-24T03:10:53.889Z,96413.81
2023-04-24T03:13:20.342Z,96411.22
2023-04-24T03:15:47.925Z,96415.66
2023-04-24T03:18:14.804Z,96409.91
2023-04-24T03:20:41.339Z,96411.41
2023-04-24T03:23:08.177Z,96412.06
2023-04-24T03:25:35.801Z,96415.41
2023-04-24T03:28:03.221Z,96411.69
2023-04-24T03:30:40.857Z,96421.38
2023-04-24T03:33:08.366Z,96435.22
2023-04-24T03:35:38.657Z,96434.72
2023-04-24T03:38:09.577Z,96428.25
2023-04-24T03:40:54.426Z,96438.38
2023-04-24T03:43:40.912Z,96439.31
2023-04-24T03:46:10.347Z,96441.13
2023-04-24T03:48:41.447Z,96439.09
2023-04-24T03:51:09.213Z,96430.59
2023-04-24T03:53:37.720Z,96439.09
2023-04-24T03:56:04.650Z,96437.66
2023-04-24T03:58:32.484Z,96446.72
2023-04-24T04:00:59.992Z,96446.47
2023-04-24T04:03:35.350Z,96441.78
2023-04-24T04:06:02.232Z,96441.78
2023-04-24T04:08:28.792Z,96442.53
2023-04-24T04:10:55.815Z,96446.44
2023-04-24T04:13:23.485Z,96441.25
2023-04-24T04:15:50.235Z,96439.19
2023-04-24T04:18:16.979Z,96437.91
2023-04-24T04:20:43.704Z,96443.75
2023-04-24T04:23:12.924Z,96441.06
2023-04-24T04:26:04.346Z,96451.84
2023-04-24T04:28:45.451Z,96453.16
2023-04-24T04:31:12.567Z,96448.44
2023-04-24T04:33:40.429Z,96454.34
2023-04-24T04:36:08.900Z,96458.63
2023-04-24T04:38:40.343Z,96452.97
2023-04-24T04:41:17.808Z,96455.34
2023-04-24T04:43:44.761Z,96453.44
2023-04-24T04:46:12.170Z,96461.50
2023-04-24T04:49:02.344Z,96461.63
2023-04-24T04:51:29.259Z,96465.97
2023-04-24T04:53:55.983Z,96453.44
2023-04-24T04:56:23.341Z,96452.69
2023-04-24T04:58:50.192Z,96453.16
2023-04-24T05:01:18.424Z,96448.69
2023-04-24T05:03:47.554Z,96452.13
2023-04-24T05:06:16.368Z,96450.72
2023-04-24T05:08:46.015Z,96452.88
2023-04-24T05:11:23.877Z,96440.59
2023-04-24T05:13:50.548Z,96453.25
2023-04-24T05:16:22.636Z,96452.75
2023-04-24T05:18:51.483Z,96458.56
2023-04-24T05:21:22.116Z,96459.66
2023-04-24T05:23:51.481Z,96454.91
2023-04-24T05:26:27.082Z,96450.91
2023-04-24T05:28:56.013Z,96451.63
2023-04-24T05:31:22.538Z,96442.66
2023-04-24T05:33:50.297Z,96457.72
2023-04-24T05:36:16.812Z,96453.59
2023-04-24T05:38:43.460Z,96462.25
2023-04-24T05:41:09.983Z,96461.63
2023-04-24T05:43:36.437Z,96459.09
2023-04-24T05:46:03.020Z,96458.56
2023-04-24T05:48:29.589Z,96467.50
2023-04-24T05:50:56.160Z,96461.22
2023-04-24T05:53:23.944Z,96461.00
2023-04-24T05:55:50.697Z,96459.09
2023-04-24T05:58:17.316Z,96456.94
2023-04-24T06:00:47.761Z,96461.28
2023-04-24T06:03:14.631Z,96454.31
2023-04-24T06:05:41.456Z,96465.88
2023-04-24T06:08:08.378Z,96461.03
2023-04-24T06:10:38.752Z,96462.34
2023-04-24T06:13:07.656Z,96464.25
2023-04-24T06:15:36.587Z,96463.16
2023-04-24T06:18:08.688Z,96466.75
2023-04-24T06:20:36.467Z,96468.81
2023-04-24T06:23:03.019Z,96466.69
2023-04-24T06:25:29.717Z,96471.69
2023-04-24T06:27:56.732Z,96467.59
2023-04-24T06:30:23.451Z,96463.94
2023-04-24T06:32:49.960Z,96470.63
2023-04-24T06:35:16.430Z,96464.75
2023-04-24T06:37:43.589Z,96473.13
2023-04-24T06:40:10.422Z,96470.81
2023-04-24T06:42:37.464Z,96462.72
2023-04-24T06:45:04.631Z,96469.78
2023-04-24T06:47:31.163Z,96470.84
2023-04-24T06:49:58.070Z,96477.72
2023-04-24T06:52:24.514Z,96474.59
2023-04-24T06:54:51.015Z,96480.00
2023-04-24T06:57:18.281Z,96479.13
2023-04-24T06:59:45.090Z,96488.22
2023-04-24T07:02:11.822Z,96493.69
2023-04-24T07:04:38.476Z,96493.31
2023-04-24T07:07:05.630Z,96486.28
2023-04-24T07:09:32.865Z,96492.78
2023-04-24T07:11:59.468Z,96497.75
2023-04-24T07:14:26.429Z,96503.66
2023-04-24T07:16:53.041Z,96508.53
2023-04-24T07:19:19.512Z,96503.59
2023-04-24T07:21:46.354Z,96513.94
2023-04-24T07:24:13.870Z,96505.16
2023-04-24T07:26:41.184Z,96504.94
2023-04-24T07:29:07.942Z,96516.47
2023-04-24T07:31:34.713Z,96524.78
2023-04-24T07:34:01.244Z,96519.19
2023-04-24T07:36:28.987Z,96522.28
2023-04-24T07:38:56.708Z,96524.91
2023-04-24T07:41:25.104Z,96528.78
2023-04-24T07:43:51.972Z,96529.78
2023-04-24T07:46:18.589Z,96532.72
2023-04-24T07:48:45.160Z,96535.91
2023-04-24T07:51:14.263Z,96539.63
2023-04-24T07:53:41.098Z,96532.13
2023-04-24T07:56:07.756Z,96543.13
2023-04-24T07:58:34.470Z,96538.31
2023-04-24T08:01:00.978Z,96538.84
2023-04-24T08:03:27.580Z,96544.88
2023-04-24T08:05:54.205Z,96553.06
2023-04-24T08:08:22.677Z,96561.81
2023-04-24T08:10:49.259Z,96554.22
2023-04-24T08:13:15.845Z,96558.41
2023-04-24T08:15:42.352Z,96560.69
2023-04-24T08:18:08.918Z,96572.03
2023-04-24T08:20:35.569Z,96565.88
2023-04-24T08:23:02.076Z,96572.28
2023-04-24T08:25:28.509Z,96560.84
2023-04-24T08:27:55.473Z,96574.13
2023-04-24T08:30:22.003Z,96574.31
2023-04-24T08:32:48.758Z,96571.47
2023-04-24T08:35:15.312Z,96579.41
2023-04-24T08:37:41.940Z,96581.16
2023-04-24T08:40:14.265Z,96579.50
2023-04-24T08:42:45.235Z,96581.47
2023-04-24T08:45:12.765Z,96587.28
2023-04-24T08:47:40.642Z,96586.31
2023-04-24T08:50:08.164Z,96587.09
2023-04-24T08:52:35.483Z,96587.38
2023-04-24T08:55:02.695Z,96589.63
2023-04-24T08:57:30.135Z,96587.38
2023-04-24T08:59:57.469Z,96592.78
2023-04-24T09:02:24.642Z,96590.47
2023-04-24T09:04:52.124Z,96596.28
2023-04-24T09:07:20.466Z,96591.34
2023-04-24T09:09:47.415Z,96594.38
2023-04-24T09:12:14.024Z,96592.00
2023-04-24T09:14:43.667Z,96599.00
2023-04-24T09:17:10.314Z,96598.13
2023-04-24T09:19:36.886Z,96599.41
2023-04-24T09:22:07.627Z,96601.00
2023-04-24T09:24:34.605Z,96601.59
2023-04-24T09:27:05.030Z,96603.31
2023-04-24T09:29:32.847Z,96602.09
2023-04-24T09:31:59.789Z,96602.59
2023-04-24T09:34:27.192Z,96588.41
2023-04-24T09:36:54.478Z,96594.28
2023-04-24T09:39:21.201Z,96596.50
2023-04-24T09:41:47.739Z,96594.69
2023-04-24T09:44:15.498Z,96602.22
2023-04-24T09:46:42.820Z,96595.13
2023-04-24T09:49:17.180Z,96584.09
2023-04-24T09:51:44.075Z,96588.31
2023-04-24T09:54:18.218Z,96583.91
2023-04-24T09:56:46.318Z,96586.22
2023-04-24T09:59:13.627Z,96585.81
2023-04-24T10:01:43.448Z,96580.38
2023-04-24T10:04:18.056Z,96580.75
2023-04-24T10:06:44.980Z,96574.13
2023-04-24T10:09:14.848Z,96574.53
2023-04-24T10:11:46.164Z,96578.09
2023-04-24T10:14:17.148Z,96569.97
2023-04-24T10:16:44.587Z,96573.69
2023-04-24T10:19:12.027Z,96569.94
2023-04-24T10:21:43.187Z,96571.00
2023-04-24T10:24:10.076Z,96568.28
2023-04-24T10:26:37.622Z,96559.28
2023-04-24T10:29:05.993Z,96566.19
2023-04-24T10:31:33.723Z,96568.91
2023-04-24T10:34:00.948Z,96577.06
2023-04-24T10:36:29.195Z,96572.91
2023-04-24T10:38:57.527Z,96567.00
2023-04-24T10:41:26.605Z,96572.88
2023-04-24T10:44:06.651Z,96571.63
2023-04-24T10:46:33.260Z,96576.44
2023-04-24T10:48:59.904Z,96575.59
2023-04-24T10:51:46.136Z,96577.25
2023-04-24T10:54:29.745Z,96569.31
2023-04-24T10:57:15.243Z,96570.47
2023-04-24T10:59:42.080Z,96570.38
2023-04-24T11:02:09.488Z,96562.28
2023-04-24T11:04:36.407Z,96561.31
2023-04-24T11:07:06.464Z,96561.63
2023-04-24T11:09:34.032Z,96561.91
2023-04-24T11:12:13.725Z,96557.88
2023-04-24T11:14:59.212Z,96560.00
2023-04-24T11:17:33.149Z,96563.03
2023-04-24T11:20:26.665Z,96563.63
2023-04-24T11:22:58.849Z,96567.75
2023-04-24T11:25:26.116Z,96559.28
2023-04-24T11:28:03.476Z,96565.22
2023-04-24T11:30:30.427Z,96566.97
2023-04-24T11:33:02.770Z,96561.88
2023-04-24T11:35:31.488Z,96560.25
2023-04-24T11:40:27.566Z,96559.03
2023-04-24T11:42:56.494Z,96565.69
2023-04-24T11:45:24.713Z,96558.19
2023-04-24T11:47:51.785Z,96568.41
2023-04-24T11:50:19.749Z,96562.34
2023-04-24T11:52:50.242Z,96559.06
2023-04-24T11:55:16.810Z,96562.50
2023-04-24T11:57:45.449Z,96560.19
2023-04-24T12:00:22.664Z,96566.13
2023-04-24T12:02:50.351Z,96558.84
2023-04-24T12:05:20.772Z,96567.66
2023-04-24T12:07:47.415Z,96560.97
2023-04-24T12:10:13.973Z,96556.28
2023-04-24T12:12:40.444Z,96562.16
2023-04-24T12:15:10.338Z,96558.44
2023-04-24T12:17:39.837Z,96552.06
2023-04-24T12:20:08.038Z,96560.66
2023-04-24T12:22:47.639Z,96557.94
2023-04-24T12:25:14.716Z,96564.63
2023-04-24T12:27:41.368Z,96562.66
2023-04-24T12:30:11.900Z,96563.84
2023-04-24T12:32:41.928Z,96556.34
2023-04-24T12:35:08.554Z,96555.41
2023-04-24T12:37:35.065Z,96557.94
2023-04-24T12:40:08.850Z,96555.94
2023-04-24T12:42:36.132Z,96548.03
2023-04-24T12:45:07.043Z,96544.13
2023-04-24T12:47:34.269Z,96543.69
2023-04-24T12:50:01.028Z,96543.28
2023-04-24T12:52:28.210Z,96546.00
2023-04-24T12:54:56.052Z,96545.16
2023-04-24T12:57:22.937Z,96530.50
2023-04-24T12:59:49.452Z,96535.88
2023-04-24T13:02:18.613Z,96537.69
2023-04-24T13:04:47.116Z,96536.00
2023-04-24T13:07:14.959Z,96532.00
2023-04-24T13:09:42.081Z,96530.06
2023-04-24T13:12:08.908Z,96523.41
2023-04-24T13:14:35.643Z,96529.81
2023-04-24T13:17:02.178Z,96531.78
2023-04-24T13:19:28.778Z,96519.81
2023-04-24T13:21:56.669Z,96520.50
2023-04-24T13:24:25.540Z,96522.50
2023-04-24T13:26:52.325Z,96509.97
2023-04-24T13:29:18.872Z,96513.19
2023-04-24T13:31:45.676Z,96511.50
2023-04-24T13:34:12.185Z,96508.81
2023-04-24T13:36:38.756Z,96505.63
2023-04-24T13:39:06.265Z,96519.63
2023-04-24T13:41:33.709Z,96511.25
2023-04-24T13:44:00.190Z,96507.22
2023-04-24T13:46:26.694Z,96513.38
2023-04-24T13:48:53.567Z,96521.13
2023-04-24T13:51:20.039Z,96514.34
2023-04-24T13:53:46.589Z,96510.75
2023-04-24T13:56:14.716Z,96514.59
2023-04-24T13:58:41.422Z,96519.19
2023-04-24T14:01:07.966Z,96508.91
2023-04-24T14:03:34.927Z,96510.53
2023-04-24T14:06:01.553Z,96510.13
2023-04-24T14:08:28.024Z,96511.13
2023-04-24T14:10:54.560Z,96509.50
2023-04-24T14:13:21.195Z,96513.09
2023-04-24T14:15:47.829Z,96516.59
2023-04-24T14:18:16.274Z,96519.72
2023-04-24T14:20:42.776Z,96516.16
2023-04-24T14:23:09.460Z,96514.44
2023-04-24T14:25:36.008Z,96517.66
2023-04-24T14:28:02.446Z,96519.16
2023-04-24T14:30:28.965Z,96513.38
2023-04-24T14:32:55.482Z,96518.19
2023-04-24T14:35:22.880Z,96510.41
2023-04-24T14:37:50.095Z,96505.69
2023-04-24T14:42:47.420Z,96512.22
2023-04-24T14:45:13.960Z,96518.13
2023-04-24T14:47:40.504Z,96519.00
2023-04-24T14:50:09.083Z,96525.72
2023-04-24T14:52:36.729Z,96528.63
2023-04-24T14:55:03.340Z,96518.16
2023-04-24T14:57:30.044Z,96513.94
2023-04-24T14:59:56.499Z,96522.97
2023-04-24T15:02:23.142Z,96519.84
2023-04-24T15:04:49.896Z,96526.09
2023-04-24T15:07:16.479Z,96523.19
2023-04-24T15:09:44.005Z,96522.38
2023-04-24T15:12:10.944Z,96522.78
2023-04-24T15:14:37.659Z,96522.78
2023-04-24T15:17:04.190Z,96521.97
2023-04-24T15:19:30.721Z,96523.19
2023-04-24T15:21:57.209Z,96524.44
2023-04-24T15:24:23.654Z,96523.84
2023-04-24T15:26:50.153Z,96515.25
2023-04-24T15:29:16.669Z,96523.19
2023-04-24T15:31:43.143Z,96515.69
2023-04-24T15:34:09.843Z,96512.34
2023-04-24T15:36:36.358Z,96518.59
2023-04-24T15:39:04.799Z,96517.72
2023-04-24T15:41:32.782Z,96515.44
2023-04-24T15:43:59.242Z,96533.38
2023-04-24T15:46:26.246Z,96531.72
2023-04-24T15:48:53.064Z,96534.84
2023-04-24T15:51:19.586Z,96561.34
2023-04-24T15:53:47.005Z,96613.88
2023-04-24T15:56:13.839Z,96622.50
2023-04-24T15:58:40.619Z,96615.19
2023-04-24T16:01:07.139Z,96607.44
2023-04-24T16:03:33.907Z,96593.50
2023-04-24T16:06:00.752Z,96588.75
2023-04-24T16:08:27.224Z,96574.78
2023-04-24T16:10:53.671Z,96567.44
2023-04-24T16:13:20.454Z,96564.53
2023-04-24T16:15:47.032Z,96564.16
2023-04-24T16:18:13.595Z,96555.13
2023-04-24T16:20:40.078Z,96551.41
2023-04-24T16:23:06.647Z,96556.47
2023-04-24T16:25:33.079Z,96554.38
2023-04-24T16:27:59.841Z,96559.50
2023-04-24T16:30:26.730Z,96559.44
2023-04-24T16:32:53.501Z,96569.59
2023-04-24T16:35:20.049Z,96567.75
2023-04-24T16:37:46.538Z,96565.84
2023-04-24T16:40:12.984Z,96584.25
2023-04-24T16:42:39.763Z,96568.28
2023-04-24T16:45:06.802Z,96571.22
2023-04-24T16:47:33.325Z,96573.09
2023-04-24T16:49:59.767Z,96573.25
2023-04-24T16:52:26.269Z,96571.97
2023-04-24T16:54:52.698Z,96578.31
2023-04-24T16:57:19.187Z,96572.72
2023-04-24T16:59:45.624Z,96569.25
2023-04-24T17:02:12.181Z,96569.84
2023-04-24T17:04:38.786Z,96577.03
2023-04-24T17:07:05.276Z,96583.81
2023-04-24T17:09:31.773Z,96582.41
2023-04-24T17:11:58.297Z,96583.00
2023-04-24T17:14:26.388Z,96581.78
2023-04-24T17:16:53.518Z,96590.31
2023-04-24T17:19:20.111Z,96589.03
2023-04-24T17:21:46.548Z,96597.78
2023-04-24T17:24:13.025Z,96595.81
2023-04-24T17:26:39.517Z,96599.28
2023-04-24T17:29:06.170Z,96596.03
2023-04-24T17:31:32.727Z,96603.56
2023-04-24T17:33:59.670Z,96614.41
2023-04-24T17:36:26.174Z,96609.13
2023-04-24T17:38:52.704Z,96616.50
2023-04-24T17:41:19.215Z,96628.94
2023-04-24T17:43:45.816Z,96628.38
2023-04-24T17:46:12.923Z,96640.94
2023-04-24T17:48:39.480Z,96635.06
2023-04-24T17:51:05.954Z,96643.50
2023-04-24T17:53:32.389Z,96647.19
2023-04-24T17:56:01.944Z,96653.69
2023-04-24T17:58:28.929Z,96663.03
2023-04-24T18:00:55.507Z,96657.13
2023-04-24T18:03:22.058Z,96670.25
2023-04-24T18:05:48.685Z,96675.53
2023-04-24T18:08:15.217Z,96675.91
2023-04-24T18:13:09.847Z,96678.16
2023-04-24T18:15:36.327Z,96676.91
2023-04-24T18:18:03.201Z,96673.63
2023-04-24T18:20:30.904Z,96688.34
2023-04-24T18:22:57.350Z,96688.44
2023-04-24T18:25:26.978Z,96695.97
2023-04-24T18:27:54.618Z,96689.63
2023-04-24T18:30:22.000Z,96698.03
2023-04-24T18:32:49.518Z,96700.34
2023-04-24T18:35:16.686Z,96700.81
2023-04-24T18:37:45.322Z,96710.50
2023-04-24T18:40:12.637Z,96716.84
2023-04-24T18:42:39.727Z,96722.66
2023-04-24T18:45:06.557Z,96721.75
2023-04-24T18:47:33.063Z,96727.84
2023-04-24T18:49:59.597Z,96728.81
2023-04-24T18:52:26.447Z,96719.75
2023-04-24T18:54:52.950Z,96740.75
2023-04-24T18:57:19.726Z,96744.09
2023-04-24T18:59:46.163Z,96738.78
2023-04-24T19:02:12.742Z,96734.03
2023-04-24T19:04:39.391Z,96737.44
2023-04-24T19:07:05.920Z,96742.00
2023-04-24T19:09:32.534Z,96746.06
2023-04-24T19:12:00.131Z,96736.47
2023-04-24T19:14:26.736Z,96741.47
2023-04-24T19:16:53.272Z,96739.28
2023-04-24T19:19:19.835Z,96738.59
2023-04-24T19:21:47.435Z,96745.38
2023-04-24T19:24:14.098Z,96748.97
2023-04-24T19:26:40.588Z,96742.88
2023-04-24T19:29:07.055Z,96743.72
2023-04-24T19:31:33.590Z,96746.91
2023-04-24T19:34:00.034Z,96748.91
2023-04-24T19:36:26.924Z,96747.25
2023-04-24T19:38:53.434Z,96748.22
2023-04-24T19:41:19.899Z,96748.41
2023-04-24T19:43:48.023Z,96759.63
2023-04-24T19:46:14.654Z,96757.41
2023-04-24T19:48:41.168Z,96763.09
2023-04-24T19:51:07.610Z,96767.84
2023-04-24T19:53:34.112Z,96763.16
2023-04-24T19:56:00.573Z,96767.84
2023-04-24T19:58:27.039Z,96775.78
2023-04-24T20:00:53.477Z,96769.94
2023-04-24T20:03:32.185Z,96767.50
2023-04-24T20:06:00.257Z,96771.13
2023-04-24T20:08:26.903Z,96776.25
2023-04-24T20:10:54.385Z,96781.00
2023-04-24T20:13:21.037Z,96784.84
2023-04-24T20:15:47.605Z,96776.47
2023-04-24T20:18:14.165Z,96775.97
2023-04-24T20:20:41.644Z,96784.22
2023-04-24T20:23:08.430Z,96783.53
2023-04-24T20:25:36.116Z,96785.47
2023-04-24T20:28:02.789Z,96778.97
2023-04-24T20:30:31.481Z,96786.75
2023-04-24T20:32:58.466Z,96791.63
2023-04-24T20:35:25.196Z,96787.13
2023-04-24T20:37:53.622Z,96789.66
2023-04-24T20:40:20.192Z,96795.19
2023-04-24T20:42:46.672Z,96800.94
2023-04-24T20:45:13.185Z,96797.38
2023-04-24T20:47:39.676Z,96798.69
2023-04-24T20:50:07.087Z,96798.94
2023-04-24T20:52:33.563Z,96799.63
2023-04-24T20:55:00.062Z,96797.69
2023-04-24T20:57:26.602Z,96799.88
2023-04-24T20:59:53.021Z,96808.00
2023-04-24T21:02:19.562Z,96804.78
2023-04-24T21:04:46.095Z,96792.88
2023-04-24T21:07:13.744Z,96800.09
2023-04-24T21:09:40.298Z,96795.75
2023-04-24T21:12:06.904Z,96796.09
2023-04-24T21:14:33.334Z,96788.19
2023-04-24T21:17:00.106Z,96788.84
2023-04-24T21:19:26.838Z,96789.50
2023-04-24T21:21:53.302Z,96794.84
2023-04-24T21:24:19.741Z,96786.22
2023-04-24T21:26:46.692Z,96786.03
2023-04-24T21:29:13.414Z,96789.28
2023-04-24T21:31:39.875Z,96788.28
2023-04-24T21:34:06.353Z,96789.25
2023-04-24T21:36:33.630Z,96797.03
2023-04-24T21:39:00.056Z,96793.31
2023-04-24T21:41:26.681Z,96796.69
2023-04-24T21:43:53.295Z,96803.25
2023-04-24T21:46:20.144Z,96791.63
2023-04-24T21:48:46.705Z,96797.00
2023-04-24T21:51:13.228Z,96793.00
2023-04-24T21:53:39.750Z,96798.03
2023-04-24T21:56:06.390Z,96796.84
2023-04-24T21:58:32.930Z,96794.00
2023-04-24T22:00:59.433Z,96796.03
2023-04-24T22:03:26.036Z,96788.63
2023-04-24T22:05:52.637Z,96792.31
2023-04-24T22:08:19.111Z,96782.44
2023-04-24T22:10:46.032Z,96793.34
2023-04-24T22:13:12.505Z,96793.84
2023-04-24T22:15:39.006Z,96790.31
2023-04-24T22:18:06.548Z,96795.88
2023-04-24T22:20:36.044Z,96789.31
2023-04-24T22:23:02.509Z,96789.00
2023-04-24T22:25:29.177Z,96786.81
2023-04-24T22:27:55.787Z,96777.03
2023-04-24T22:30:22.366Z,96782.94
2023-04-24T22:32:48.965Z,96791.16
2023-04-24T22:35:16.061Z,96781.94
2023-04-24T22:37:42.651Z,96783.59
2023-04-24T22:40:11.246Z,96789.13
2023-04-24T22:42:38.191Z,96789.66
2023-04-24T22:45:05.089Z,96792.66
2023-04-24T22:47:31.724Z,96795.69
2023-04-24T22:49:59.291Z,96795.34
2023-04-24T22:52:28.733Z,96799.22
2023-04-24T22:54:55.360Z,96799.41
2023-04-24T22:57:21.850Z,96795.00
2023-04-24T22:59:48.376Z,96789.66
2023-04-24T23:02:15.786Z,96794.03
2023-04-24T23:04:42.343Z,96796.00
2023-04-24T23:07:08.800Z,96794.53
2023-04-24T23:09:35.312Z,96788.78
2023-04-24T23:12:02.180Z,96789.97
2023-04-24T23:14:29.753Z,96788.97
2023-04-24T23:16:56.353Z,96782.44
2023-04-24T23:19:22.916Z,96779.25
2023-04-24T23:21:49.733Z,96774.53
2023-04-24T23:24:16.367Z,96774.53
2023-04-24T23:26:42.817Z,96764.28
2023-04-24T23:29:09.281Z,96772.84
2023-04-24T23:31:35.750Z,96770.16
2023-04-24T23:34:02.359Z,96768.09
2023-04-24T23:36:29.030Z,96772.81
2023-04-24T23:38:55.760Z,96772.16
2023-04-24T23:41:22.233Z,96782.06
2023-04-24T23:43:48.885Z,96780.38
2023-04-24T23:46:15.717Z,96778.22
2023-04-24T23:48:42.283Z,96773.16
2023-04-24T23:51:08.786Z,96773.53
2023-04-24T23:53:35.247Z,96774.47
2023-04-24T23:56:01.729Z,96774.50
2023-04-24T23:58:28.149Z,96780.88
